Time;durP1;ratioP1;P1;durP2;ratioP2;P2;SDS_P1;SDS_P2;PMS_P1;PMS_P2;Temp;Humidity;BMP_temperature;BMP_pressure;BME280_temperature;BME280_humidity;BME280_pressure;Samples;Min_cycle;Max_cycle;Signal;HPM_P1;HPM_P2
2022/06/01 00:00:34;;;;;;;;;;;;;;;23.31;76.21;97094.58;592262;239;68225;-71
2022/06/01 00:03:02;;;;;;;;;;;;;;;23.31;76.23;97099.94;592311;239;66269;-71
2022/06/01 00:05:29;;;;;;;;;;;;;;;23.30;76.23;97090.28;592269;239;64987;-71
2022/06/01 00:07:57;;;;;;;;;;;;;;;23.30;76.20;97088.42;592266;239;66134;-71
2022/06/01 00:10:24;;;;;;;;;;;;;;;23.31;76.18;97089.22;592235;239;66434;-71
2022/06/01 00:12:54;;;;;;;;;;;;;;;23.30;76.21;97091.10;592250;239;63026;-71
2022/06/01 00:15:22;;;;;;;;;;;;;;;23.29;76.23;97089.48;592284;238;68172;-71
2022/06/01 00:17:49;;;;;;;;;;;;;;;23.30;76.22;97084.92;592248;239;66457;-71
2022/06/01 00:20:17;;;;;;;;;;;;;;;23.30;76.26;97079.55;592268;239;63038;-71
2022/06/01 00:22:45;;;;;;;;;;;;;;;23.30;76.25;97076.88;592286;239;66784;-71
2022/06/01 00:25:13;;;;;;;;;;;;;;;23.29;76.04;97072.61;592258;239;66471;-71
2022/06/01 00:27:40;;;;;;;;;;;;;;;23.30;76.13;97076.88;592336;239;65375;-71
2022/06/01 00:30:12;;;;;;;;;;;;;;;23.30;76.25;97079.55;592302;239;49929;-71
2022/06/01 00:32:40;;;;;;;;;;;;;;;23.30;76.26;97074.19;592286;239;68490;-71
2022/06/01 00:35:08;;;;;;;;;;;;;;;23.30;76.26;97079.55;593448;238;63186;-70
2022/06/01 00:37:36;;;;;;;;;;;;;;;23.30;76.21;97074.19;594930;238;66596;-70
2022/06/01 00:40:05;;;;;;;;;;;;;;;23.30;76.32;97075.02;594875;238;66554;-70
2022/06/01 00:42:34;;;;;;;;;;;;;;;23.28;76.35;97066.45;594868;238;64817;-70
2022/06/01 00:45:01;;;;;;;;;;;;;;;23.29;76.26;97073.40;594862;238;68989;-70
2022/06/01 00:47:29;;;;;;;;;;;;;;;23.28;76.25;97071.81;594899;238;68720;-70
2022/06/01 00:50:01;;;;;;;;;;;;;;;23.27;76.09;97064.83;594890;238;65491;-70
2022/06/01 00:52:36;;;;;;;;;;;;;;;23.29;75.96;97067.24;594865;238;68646;-70
2022/06/01 00:55:04;;;;;;;;;;;;;;;23.28;75.96;97062.97;594854;238;71104;-70
2022/06/01 00:57:31;;;;;;;;;;;;;;;23.28;76.08;97061.09;594852;238;65236;-71
2022/06/01 01:00:00;;;;;;;;;;;;;;;23.28;76.17;97054.93;594882;238;68705;-70
2022/06/01 01:02:29;;;;;;;;;;;;;;;23.28;76.01;97060.30;594918;238;66247;-70
2022/06/01 01:04:56;;;;;;;;;;;;;;;23.28;76.07;97052.25;594869;238;65383;-70
2022/06/01 01:07:26;;;;;;;;;;;;;;;23.27;76.01;97048.74;594881;238;68644;-70
2022/06/01 01:09:53;;;;;;;;;;;;;;;23.28;75.88;97046.89;594871;238;69437;-70
2022/06/01 01:12:21;;;;;;;;;;;;;;;23.26;76.06;97047.95;594904;238;65459;-70
2022/06/01 01:14:48;;;;;;;;;;;;;;;23.28;76.11;97046.89;594871;238;68920;-70
2022/06/01 01:17:16;;;;;;;;;;;;;;;23.27;76.08;97048.74;594906;238;68358;-70
2022/06/01 01:19:46;;;;;;;;;;;;;;;23.26;76.14;97047.95;594851;238;65384;-70
2022/06/01 01:22:15;;;;;;;;;;;;;;;23.28;76.11;97046.89;594898;238;68784;-70
2022/06/01 01:25:01;;;;;;;;;;;;;;;23.27;76.18;97043.37;594847;238;68550;-70
2022/06/01 01:27:28;;;;;;;;;;;;;;;23.26;76.06;97042.59;594904;238;65212;-71
2022/06/01 01:29:56;;;;;;;;;;;;;;;23.25;76.06;97043.69;594853;238;68385;-71
2022/06/01 01:32:23;;;;;;;;;;;;;;;23.26;76.07;97041.80;594896;238;68625;-71
2022/06/01 01:34:51;;;;;;;;;;;;;;;23.26;76.18;97042.59;594802;238;65163;-71
2022/06/01 01:37:22;;;;;;;;;;;;;;;23.25;76.17;97043.69;594901;238;68763;-71
2022/06/01 01:39:51;;;;;;;;;;;;;;;23.25;76.08;97041.00;594922;238;66426;-71
2022/06/01 01:42:19;;;;;;;;;;;;;;;23.25;75.97;97038.32;594882;238;65073;-71
2022/06/01 01:44:57;;;;;;;;;;;;;;;23.25;76.06;97035.64;594879;238;68757;-69
2022/06/01 01:47:24;;;;;;;;;;;;;;;23.25;76.20;97032.16;594849;236;68506;-69
2022/06/01 01:49:52;;;;;;;;;;;;;;;23.25;76.00;97030.28;594869;238;65329;-69
2022/06/01 01:52:19;;;;;;;;;;;;;;;23.24;76.21;97026.01;594934;238;68682;-69
2022/06/01 01:54:54;;;;;;;;;;;;;;;23.25;76.22;97024.91;594874;238;68814;-69
2022/06/01 01:57:40;;;;;;;;;;;;;;;23.24;76.20;97031.38;594884;238;63295;-69
2022/06/01 02:00:09;;;;;;;;;;;;;;;23.25;76.19;97035.64;594894;238;68667;-69
2022/06/01 02:02:47;;;;;;;;;;;;;;;23.24;76.28;97034.05;594869;238;68537;-69
2022/06/01 02:08:18;;;;;;;;;;;;;;;23.24;76.29;97020.64;594900;238;66507;-69
2022/06/01 02:13:32;;;;;;;;;;;;;;;23.24;76.37;97030.55;594894;238;65488;-69
2022/06/01 02:16:00;;;;;;;;;;;;;;;23.22;76.44;97028.17;594858;238;68748;-69
2022/06/01 02:18:29;;;;;;;;;;;;;;;23.22;76.43;97028.17;594885;238;68332;-69
2022/06/01 02:20:58;;;;;;;;;;;;;;;23.22;76.35;97025.48;594850;238;65418;-69
2022/06/01 02:23:29;;;;;;;;;;;;;;;23.22;76.43;97025.48;594722;238;68685;-69
2022/06/01 02:25:58;;;;;;;;;;;;;;;23.22;76.44;97025.48;594862;238;69050;-69
2022/06/01 02:28:26;;;;;;;;;;;;;;;23.23;76.51;97027.08;594858;238;65202;-69
2022/06/01 02:30:55;;;;;;;;;;;;;;;23.22;76.42;97020.13;594875;238;68773;-69
2022/06/01 02:33:23;;;;;;;;;;;;;;;23.24;76.44;97030.55;594873;238;66677;-69
2022/06/01 02:35:52;;;;;;;;;;;;;;;23.22;76.43;97033.53;592884;238;65254;-69
2022/06/01 02:38:21;;;;;;;;;;;;;;;23.22;76.38;97028.17;592276;239;66576;-69
2022/06/01 02:40:49;;;;;;;;;;;;;;;23.22;76.55;97025.48;592233;239;66410;-69
2022/06/01 02:43:16;;;;;;;;;;;;;;;23.23;76.48;97037.01;592321;239;63070;-69
2022/06/01 02:45:44;;;;;;;;;;;;;;;23.22;76.57;97033.53;592303;239;66359;-69
2022/06/01 02:48:11;;;;;;;;;;;;;;;23.21;76.50;97039.16;592316;239;66470;-69
2022/06/01 02:50:39;;;;;;;;;;;;;;;23.22;76.42;97038.09;592265;239;62979;-69
2022/06/01 02:53:07;;;;;;;;;;;;;;;23.22;76.52;97030.05;592300;239;66648;-69
2022/06/01 02:55:34;;;;;;;;;;;;;;;23.22;76.77;97036.21;592271;239;68594;-69
2022/06/01 02:58:02;;;;;;;;;;;;;;;23.22;76.63;97033.53;592302;239;65570;-71
2022/06/01 03:00:35;;;;;;;;;;;;;;;23.22;76.66;97038.89;592303;239;68743;-69
2022/06/01 03:03:03;;;;;;;;;;;;;;;23.21;76.61;97037.28;592141;239;66440;-69
2022/06/01 03:05:33;;;;;;;;;;;;;;;23.20;76.69;97038.38;592306;239;63031;-69
2022/06/01 03:08:01;;;;;;;;;;;;;;;23.21;76.66;97039.95;592296;239;66718;-69
2022/06/01 03:10:29;;;;;;;;;;;;;;;23.21;76.68;97041.84;592278;239;66494;-69
2022/06/01 03:12:57;;;;;;;;;;;;;;;23.20;76.63;97051.78;592299;239;63031;-69
2022/06/01 03:15:25;;;;;;;;;;;;;;;23.21;76.67;97044.53;592287;239;66775;-68
2022/06/01 03:17:53;;;;;;;;;;;;;;;23.21;76.70;97045.32;592277;239;66494;-68
2022/06/01 03:20:22;;;;;;;;;;;;;;;23.21;76.84;97048.00;592274;239;65583;-68
2022/06/01 03:22:50;;;;;;;;;;;;;;;23.20;76.89;97051.78;592290;239;68731;-70
2022/06/01 03:25:19;;;;;;;;;;;;;;;23.20;76.82;97051.78;592298;239;68573;-70
2022/06/01 03:27:47;;;;;;;;;;;;;;;23.20;76.76;97059.03;592288;239;63933;-70
2022/06/01 03:30:20;;;;;;;;;;;;;;;23.19;76.76;97063.59;592311;239;66532;-70
2022/06/01 03:32:45;;;;;;;;;;;;;;;23.20;76.83;97064.39;592019;236;68583;-69
2022/06/01 03:35:14;;;;;;;;;;;;;;;23.20;76.89;97061.70;593533;238;65449;-69
2022/06/01 03:37:41;;;;;;;;;;;;;;;23.19;76.91;97055.55;594835;238;68747;-69
2022/06/01 03:40:09;;;;;;;;;;;;;;;23.20;76.82;97059.82;594853;238;68815;-69
2022/06/01 03:42:37;;;;;;;;;;;;;;;23.20;76.83;97059.03;594877;238;65450;-70
2022/06/01 03:47:51;;;;;;;;;;;;;;;23.18;76.91;97064.66;594874;238;66542;-71
2022/06/01 03:50:18;;;;;;;;;;;;;;;23.19;76.84;97071.64;594851;238;63321;-68
2022/06/01 03:52:46;;;;;;;;;;;;;;;23.19;76.83;97066.28;594852;238;66491;-68
2022/06/01 03:55:14;;;;;;;;;;;;;;;23.19;76.90;97070.81;594880;238;66243;-68
2022/06/01 03:57:42;;;;;;;;;;;;;;;23.19;76.87;97082.36;594901;238;65428;-68
2022/06/01 04:00:12;;;;;;;;;;;;;;;23.19;76.85;97077.00;594859;238;68307;-68
2022/06/01 04:02:41;;;;;;;;;;;;;;;23.18;76.80;97078.06;594892;238;68557;-68
2022/06/01 04:05:09;;;;;;;;;;;;;;;23.18;76.80;97075.38;594851;238;65157;-71
2022/06/01 04:07:37;;;;;;;;;;;;;;;23.18;76.81;97077.27;594897;238;68621;-68
2022/06/01 04:10:04;;;;;;;;;;;;;;;23.18;76.78;97072.70;594882;238;68298;-69
2022/06/01 04:12:32;;;;;;;;;;;;;;;23.17;76.87;97068.44;594839;238;65391;-71
2022/06/01 04:14:59;;;;;;;;;;;;;;;23.18;76.82;97072.70;594882;238;68334;-68
2022/06/01 04:17:27;;;;;;;;;;;;;;;23.17;76.81;97076.48;594898;238;68322;-70
2022/06/01 04:19:54;;;;;;;;;;;;;;;23.18;76.80;97071.91;594853;238;65437;-68
2022/06/01 04:22:22;;;;;;;;;;;;;;;23.17;76.79;97076.48;594875;238;66438;-68
2022/06/01 04:24:49;;;;;;;;;;;;;;;23.17;76.84;97064.95;594847;238;66489;-68
2022/06/01 04:27:17;;;;;;;;;;;;;;;23.16;76.95;97066.84;594838;238;63290;-71
2022/06/01 04:29:45;;;;;;;;;;;;;;;23.17;76.86;97070.32;594840;238;68723;-68
2022/06/01 04:32:14;;;;;;;;;;;;;;;23.17;76.90;97071.11;594875;238;68499;-71
2022/06/01 04:34:41;;;;;;;;;;;;;;;23.17;76.85;97081.05;594812;238;62994;-69
2022/06/01 04:37:09;;;;;;;;;;;;;;;23.16;76.84;97077.57;594826;238;66460;-68
2022/06/01 04:39:36;;;;;;;;;;;;;;;23.16;76.89;97085.61;594824;238;68415;-69
2022/06/01 04:42:06;;;;;;;;;;;;;;;23.16;76.88;97084.79;594815;238;65274;-69
2022/06/01 04:44:33;;;;;;;;;;;;;;;23.16;76.96;97084.79;594822;238;68716;-69
2022/06/01 04:47:00;;;;;;;;;;;;;;;23.16;76.96;97084.79;594853;238;68313;-69
2022/06/01 04:49:28;;;;;;;;;;;;;;;23.16;77.08;97079.42;594837;238;65210;-68
2022/06/01 04:51:55;;;;;;;;;;;;;;;23.15;77.04;97084.00;594803;238;68740;-70
2022/06/01 04:54:23;;;;;;;;;;;;;;;23.15;77.05;97084.00;594794;238;68928;-71
2022/06/01 04:56:50;;;;;;;;;;;;;;;23.15;76.97;97083.20;594855;238;65451;-71
2022/06/01 04:59:20;;;;;;;;;;;;;;;23.15;77.19;97086.67;594884;238;52275;-71
2022/06/01 05:01:47;;;;;;;;;;;;;;;23.15;77.11;97077.84;594870;238;66415;-71
2022/06/01 05:04:15;;;;;;;;;;;;;;;23.16;77.14;97079.42;594864;238;63039;-70
2022/06/01 05:06:42;;;;;;;;;;;;;;;23.15;77.18;97077.84;594841;238;66465;-70
2022/06/01 05:09:10;;;;;;;;;;;;;;;23.14;77.14;97087.77;594890;238;69357;-70
2022/06/01 05:11:37;;;;;;;;;;;;;;;23.15;77.02;97078.63;594870;238;65530;-71
2022/06/01 05:14:05;;;;;;;;;;;;;;;23.15;77.08;97091.25;594844;238;68356;-70
2022/06/01 05:16:32;;;;;;;;;;;;;;;23.14;77.13;97082.41;594840;238;68126;-70
2022/06/01 05:19:00;;;;;;;;;;;;;;;23.14;77.25;97087.77;594834;238;63014;-70
2022/06/01 05:21:28;;;;;;;;;;;;;;;23.15;77.14;97093.92;594856;238;66672;-70
2022/06/01 05:23:56;;;;;;;;;;;;;;;23.14;77.12;97087.77;594824;238;66426;-70
2022/06/01 05:26:23;;;;;;;;;;;;;;;23.14;77.07;97092.34;594869;238;65253;-69
2022/06/01 05:28:51;;;;;;;;;;;;;;;23.14;77.00;97090.45;594880;238;66451;-69
2022/06/01 05:31:19;;;;;;;;;;;;;;;23.14;77.12;97095.81;594765;238;68432;-68
2022/06/01 05:33:48;;;;;;;;;;;;;;;23.13;77.14;97085.36;594857;238;65616;-69
2022/06/01 05:36:17;;;;;;;;;;;;;;;23.13;77.18;97098.77;594665;237;66541;-69
2022/06/01 05:38:49;;;;;;;;;;;;;;;23.13;77.27;97096.08;594809;238;66591;-69
2022/06/01 05:41:15;;;;;;;;;;;;;;;23.13;77.21;97101.44;594571;238;65514;-69
2022/06/01 05:43:42;;;;;;;;;;;;;;;23.13;77.21;97096.87;594811;238;68696;-69
2022/06/01 05:46:10;;;;;;;;;;;;;;;23.12;77.22;97092.61;594813;238;68514;-69
2022/06/01 05:48:37;;;;;;;;;;;;;;;23.13;77.26;97098.77;594515;238;64818;-73
2022/06/01 05:51:05;;;;;;;;;;;;;;;23.11;77.17;97088.34;595226;235;68642;-70
2022/06/01 05:53:32;;;;;;;;;;;;;;;23.11;76.72;97091.02;602521;235;68359;-69
2022/06/01 05:56:00;;;;;;;;;;;;;;;23.12;76.99;97091.81;602467;235;65366;-69
2022/06/01 05:58:28;;;;;;;;;;;;;;;23.11;77.45;97092.88;596311;237;68846;-69
2022/06/01 06:00:56;;;;;;;;;;;;;;;23.13;77.36;97093.41;596028;237;68656;-69
2022/06/01 06:03:24;;;;;;;;;;;;;;;23.11;77.33;97093.70;596193;237;65141;-74
2022/06/01 06:08:37;;;;;;;;;;;;;;;23.12;77.41;97089.13;596299;237;68920;-74
2022/06/01 06:11:06;;;;;;;;;;;;;;;23.09;76.81;97087.81;596155;237;65482;-72
2022/06/01 06:13:35;;;;;;;;;;;;;;;23.11;77.79;97087.52;596100;238;66434;-70
2022/06/01 06:16:03;;;;;;;;;;;;;;;23.11;77.09;97093.70;596278;236;66666;-73
2022/06/01 06:18:31;;;;;;;;;;;;;;;23.12;77.16;97094.49;595651;237;63374;-69
2022/06/01 06:20:58;;;;;;;;;;;;;;;23.12;77.19;97081.88;599270;235;66718;-69
2022/06/01 06:23:26;;;;;;;;;;;;;;;23.13;76.82;97083.47;602850;235;66650;-69
2022/06/01 06:25:53;;;;;;;;;;;;;;;23.13;76.78;97088.83;602620;235;65312;-73
2022/06/01 06:28:21;;;;;;;;;;;;;;;23.13;76.57;97088.83;602745;235;68451;-70
2022/06/01 06:30:48;;;;;;;;;;;;;;;23.12;76.54;97073.84;602732;235;68778;-71
2022/06/01 06:33:16;;;;;;;;;;;;;;;23.13;76.58;97075.43;602780;235;65265;-71
2022/06/01 06:35:44;;;;;;;;;;;;;;;23.13;76.53;97064.70;602640;235;69067;-71
2022/06/01 06:38:12;;;;;;;;;;;;;;;23.14;76.35;97068.21;598690;235;68740;-70
2022/06/01 06:40:39;;;;;;;;;;;;;;;23.13;76.28;97064.70;596073;237;65330;-70
2022/06/01 06:43:07;;;;;;;;;;;;;;;23.14;76.27;97077.05;597189;236;68796;-70
2022/06/01 06:45:34;;;;;;;;;;;;;;;23.15;76.16;97072.48;597187;236;68536;-70
2022/06/01 06:48:02;;;;;;;;;;;;;;;23.13;76.23;97067.39;597226;236;65318;-70
2022/06/01 06:50:29;;;;;;;;;;;;;;;23.14;76.21;97071.69;597286;236;68847;-71
2022/06/01 06:52:57;;;;;;;;;;;;;;;23.16;76.18;97079.42;597209;236;68793;-70
2022/06/01 06:55:24;;;;;;;;;;;;;;;23.14;76.13;97077.05;597330;236;65313;-71
2022/06/01 06:57:52;;;;;;;;;;;;;;;23.14;76.00;97074.36;597260;236;68813;-72
2022/06/01 07:00:19;;;;;;;;;;;;;;;23.15;75.97;97075.16;597191;236;69370;-70
2022/06/01 07:02:47;;;;;;;;;;;;;;;23.14;75.78;97077.05;597265;236;65281;-69
2022/06/01 07:06:08;;;;;;;;;;;;;;;23.14;75.77;97077.05;597087;236;68655;-71
2022/06/01 07:07:43;;;;;;;;;;;;;;;23.15;75.74;97073.27;595950;236;67565;-71
2022/06/01 07:10:11;;;;;;;;;;;;;;;23.15;75.66;97073.27;597260;236;65209;-70
2022/06/01 07:12:38;;;;;;;;;;;;;;;23.15;75.57;97073.27;597323;236;68836;-71
2022/06/01 07:15:06;;;;;;;;;;;;;;;23.15;75.51;97067.91;597247;236;68356;-70
2022/06/01 07:17:34;;;;;;;;;;;;;;;23.16;75.47;97071.38;597228;236;65582;-71
2022/06/01 07:20:01;;;;;;;;;;;;;;;23.15;75.28;97065.23;597338;236;68801;-71
2022/06/01 07:22:29;;;;;;;;;;;;;;;23.16;75.20;97066.84;597157;236;69100;-69
2022/06/01 07:24:56;;;;;;;;;;;;;;;23.17;75.17;97070.32;597311;236;63240;-71
2022/06/01 07:27:24;;;;;;;;;;;;;;;23.18;75.19;97070.02;597273;236;68824;-71
2022/06/01 07:29:52;;;;;;;;;;;;;;;23.30;73.23;97071.51;597220;236;68715;-71
2022/06/01 07:32:19;;;;;;;;;;;;;;;23.26;74.35;97064.04;597256;236;65347;-73
2022/06/01 07:34:47;;;;;;;;;;;;;;;23.23;75.15;97063.81;596271;235;66650;-71
2022/06/01 07:45:31;;;;;;;;;;;;;;;23.18;75.90;97055.83;593944;238;68744;-73
2022/06/01 07:47:58;;;;;;;;;;;;;;;23.18;75.71;97055.83;593951;237;65364;-71
2022/06/01 07:50:26;;;;;;;;;;;;;;;23.17;75.62;97049.67;593863;238;67044;-71
2022/06/01 07:52:53;;;;;;;;;;;;;;;23.17;75.69;97049.67;593937;238;66698;-70
2022/06/01 07:55:21;;;;;;;;;;;;;;;23.18;75.62;97048.58;594003;237;63206;-72
2022/06/01 07:57:48;;;;;;;;;;;;;;;23.17;75.67;97049.67;593899;238;66638;-71
2022/06/01 08:00:16;;;;;;;;;;;;;;;23.19;75.76;97047.51;593972;238;68800;-71
2022/06/01 08:02:44;;;;;;;;;;;;;;;23.18;74.90;97048.58;594002;237;65286;-74
2022/06/01 08:05:13;;;;;;;;;;;;;;;23.20;74.97;97043.73;593964;238;66310;-74
2022/06/01 08:07:41;;;;;;;;;;;;;;;23.20;75.09;97048.30;594001;237;68495;-74
2022/06/01 08:10:10;;;;;;;;;;;;;;;23.18;75.27;97045.89;593970;237;65566;-74
2022/06/01 08:15:23;;;;;;;;;;;;;;;23.18;75.12;97048.58;594031;238;66612;-75
2022/06/01 08:17:51;;;;;;;;;;;;;;;23.19;75.07;97052.05;594209;237;63217;-75
2022/06/01 08:20:18;;;;;;;;;;;;;;;23.18;75.10;97053.14;593938;238;68415;-75
2022/06/01 08:22:46;;;;;;;;;;;;;;;23.20;75.29;97048.30;593987;238;66354;-75
2022/06/01 08:25:20;;;;;;;;;;;;;;;23.18;75.26;97045.89;593935;238;62841;-74
2022/06/01 08:27:45;;;;;;;;;;;;;;;23.19;75.29;97041.33;593820;238;68576;-74
2022/06/01 08:30:14;;;;;;;;;;;;;;;23.19;75.47;97047.51;593970;238;68454;-74
2022/06/01 08:32:42;;;;;;;;;;;;;;;23.18;75.29;97045.89;591593;237;65629;-72
2022/06/01 08:35:11;;;;;;;;;;;;;;;23.19;75.12;97042.15;590442;238;68761;-72
2022/06/01 08:37:38;;;;;;;;;;;;;;;23.20;75.24;97040.27;594275;237;69073;-72
2022/06/01 08:40:07;;;;;;;;;;;;;;;23.19;75.26;97036.78;594264;238;65268;-72
2022/06/01 08:42:34;;;;;;;;;;;;;;;23.20;75.54;97054.45;594334;238;68863;-72
2022/06/01 08:45:06;;;;;;;;;;;;;;;23.20;75.68;97049.09;594267;238;68750;-71
2022/06/01 08:47:36;;;;;;;;;;;;;;;23.20;75.59;97049.09;593581;238;65621;-71
2022/06/01 08:50:05;;;;;;;;;;;;;;;23.20;75.70;97040.27;592048;238;68878;-71
2022/06/01 08:52:32;;;;;;;;;;;;;;;23.20;75.98;97045.63;592180;238;68381;-72
2022/06/01 08:55:00;;;;;;;;;;;;;;;23.20;76.03;97034.90;592199;237;65290;-71
2022/06/01 08:57:29;;;;;;;;;;;;;;;23.20;76.02;97037.58;591918;238;68703;-71
2022/06/01 09:00:01;;;;;;;;;;;;;;;23.22;76.19;97038.89;592216;238;68638;-71
2022/06/01 09:02:34;;;;;;;;;;;;;;;23.22;76.08;97036.21;592246;237;63286;-71
2022/06/01 09:05:15;;;;;;;;;;;;;;;23.22;75.69;97027.38;591431;238;67885;-72
2022/06/01 09:07:47;;;;;;;;;;;;;;;23.22;76.25;97033.53;592237;238;68557;-71
2022/06/01 09:10:19;;;;;;;;;;;;;;;23.21;76.60;97023.88;592089;238;65428;-71
2022/06/01 09:12:48;;;;;;;;;;;;;;;23.21;76.87;97026.55;592257;238;69620;-72
2022/06/01 09:15:21;;;;;;;;;;;;;;;23.20;77.25;97027.65;592123;238;68490;-73
2022/06/01 09:17:48;;;;;;;;;;;;;;;23.21;77.25;97031.91;592266;237;65446;-72
2022/06/01 09:23:03;;;;;;;;;;;;;;;23.20;77.64;97027.65;592150;238;66713;-70
2022/06/01 09:25:38;;;;;;;;;;;;;;;23.21;77.76;97036.48;592260;237;65382;-70
2022/06/01 09:28:08;;;;;;;;;;;;;;;23.21;77.85;97031.13;592218;238;68821;-73
2022/06/01 09:30:36;;;;;;;;;;;;;;;23.20;77.90;97027.65;592173;236;66639;-71
2022/06/01 09:33:19;;;;;;;;;;;;;;;23.20;77.93;97024.97;592271;238;65307;-71
2022/06/01 09:35:48;;;;;;;;;;;;;;;23.21;78.00;97023.88;595870;236;66668;-71
2022/06/01 09:38:20;;;;;;;;;;;;;;;23.20;78.30;97024.17;597162;236;68412;-72
2022/06/01 09:40:49;;;;;;;;;;;;;;;23.20;78.21;97030.33;596879;236;65184;-72
2022/06/01 09:43:24;;;;;;;;;;;;;;;23.20;78.28;97030.33;597123;236;68798;-71
2022/06/01 09:45:53;;;;;;;;;;;;;;;23.21;78.32;97028.44;597275;236;68425;-72
2022/06/01 09:48:26;;;;;;;;;;;;;;;23.20;78.44;97027.65;597326;236;63301;-71
2022/06/01 09:51:04;;;;;;;;;;;;;;;23.20;76.25;97022.28;597488;236;71066;-70
2022/06/01 09:53:50;;;;;;;;;;;;;;;23.25;73.32;97024.12;596974;236;66686;-71
2022/06/01 09:56:32;;;;;;;;;;;;;;;23.24;75.25;97022.50;596596;236;65481;-69
2022/06/01 10:07:22;;;;;;;;;;;;;;;23.19;77.40;97023.38;597072;237;68716;-71
2022/06/01 10:09:51;;;;;;;;;;;;;;;23.19;77.68;97019.88;596975;236;68698;-71
2022/06/01 10:12:35;;;;;;;;;;;;;;;23.18;77.60;97019.08;597203;236;65613;-71
2022/06/01 10:15:04;;;;;;;;;;;;;;;23.18;77.54;97019.08;597045;236;68351;-73
2022/06/01 10:17:39;;;;;;;;;;;;;;;23.21;76.40;97017.72;597204;236;68710;-73
2022/06/01 10:20:21;;;;;;;;;;;;;;;23.21;77.77;97012.35;597189;236;62942;-74
2022/06/01 10:22:58;;;;;;;;;;;;;;;23.21;78.15;97009.67;597150;236;69108;-69
2022/06/01 10:25:30;;;;;;;;;;;;;;;23.19;78.05;97004.61;597366;236;68819;-70
2022/06/01 10:27:59;;;;;;;;;;;;;;;23.21;78.12;97005.11;597199;236;65530;-72
2022/06/01 10:30:31;;;;;;;;;;;;;;;23.21;76.82;97017.72;597157;236;66448;-69
2022/06/01 10:33:09;;;;;;;;;;;;;;;23.21;77.72;97006.99;597186;236;71288;-72
2022/06/01 10:35:50;;;;;;;;;;;;;;;23.21;78.42;97009.67;594917;237;65384;-72
2022/06/01 10:38:19;;;;;;;;;;;;;;;23.20;78.08;97016.13;593993;238;69734;-70
2022/06/01 10:40:54;;;;;;;;;;;;;;;23.20;78.16;97008.09;593912;238;68781;-70
2022/06/01 10:43:26;;;;;;;;;;;;;;;23.20;78.02;97016.13;593959;237;65410;-70
2022/06/01 10:45:55;;;;;;;;;;;;;;;23.19;78.03;97004.61;589730;239;68812;-73
2022/06/01 10:48:27;;;;;;;;;;;;;;;23.19;77.83;97015.34;590349;239;48726;-70
2022/06/01 10:50:59;;;;;;;;;;;;;;;23.20;77.82;97008.09;592929;238;65454;-71
2022/06/01 10:53:44;;;;;;;;;;;;;;;23.20;77.73;97010.77;592762;237;66720;-72
2022/06/01 10:56:14;;;;;;;;;;;;;;;23.21;77.82;97018.51;592130;239;69532;-69
2022/06/01 10:58:42;;;;;;;;;;;;;;;23.20;77.86;97011.56;592197;239;63302;-73
2022/06/01 11:01:15;;;;;;;;;;;;;;;23.20;77.88;97008.09;592222;239;68817;-70
2022/06/01 11:03:50;;;;;;;;;;;;;;;23.20;77.84;97002.73;592130;239;68318;-70
2022/06/01 11:06:28;;;;;;;;;;;;;;;23.20;77.79;97008.88;592204;239;63036;-70
2022/06/01 11:09:00;;;;;;;;;;;;;;;23.20;77.84;97006.20;592152;239;66546;-71
2022/06/01 11:11:41;;;;;;;;;;;;;;;23.20;77.78;97006.20;592149;239;69058;-71
2022/06/01 11:14:18;;;;;;;;;;;;;;;23.21;77.83;97002.42;592128;239;63404;-72
2022/06/01 11:16:50;;;;;;;;;;;;;;;23.21;78.10;96999.74;591689;239;68815;-72
2022/06/01 11:19:35;;;;;;;;;;;;;;;23.25;76.92;97000.78;591951;239;68880;-72
2022/06/01 11:22:11;;;;;;;;;;;;;;;23.29;74.10;96997.53;592207;239;63112;-72
2022/06/01 11:24:41;;;;;;;;;;;;;;;23.29;76.26;96997.53;592061;239;68916;-73
2022/06/01 11:27:25;;;;;;;;;;;;;;;23.30;73.91;96988.39;592087;239;68608;-74
2022/06/01 11:30:06;;;;;;;;;;;;;;;23.31;73.17;96981.95;592163;239;65423;-72
2022/06/01 11:32:54;;;;;;;;;;;;;;;23.28;74.30;96985.22;592111;239;68375;-69
2022/06/01 11:35:23;;;;;;;;;;;;;;;23.26;77.78;96982.81;593303;238;66508;-68
2022/06/01 11:37:55;;;;;;;;;;;;;;;23.23;78.64;96972.66;594719;238;63059;-68
2022/06/01 11:40:33;;;;;;;;;;;;;;;23.21;78.68;96967.57;594435;238;66839;-67
2022/06/01 11:43:02;;;;;;;;;;;;;;;23.21;78.72;96970.25;594718;238;68502;-67
2022/06/01 11:45:31;;;;;;;;;;;;;;;23.21;78.77;96972.14;594583;238;65582;-68
2022/06/01 11:48:03;;;;;;;;;;;;;;;23.21;78.68;96970.25;594562;238;68699;-67
2022/06/01 11:50:35;;;;;;;;;;;;;;;23.20;78.65;96968.67;594047;238;66554;-67
2022/06/01 11:53:07;;;;;;;;;;;;;;;23.21;78.78;96966.78;594662;238;64250;-68
2022/06/01 11:55:37;;;;;;;;;;;;;;;23.21;78.71;96964.89;594732;238;66445;-69
2022/06/01 11:58:05;;;;;;;;;;;;;;;23.20;78.60;96960.63;594692;238;68629;-69
2022/06/01 12:00:35;;;;;;;;;;;;;;;23.21;78.52;96956.84;594687;238;65126;-68
2022/06/01 12:03:28;;;;;;;;;;;;;;;23.22;78.54;96961.14;594693;238;68711;-68
2022/06/01 12:06:12;;;;;;;;;;;;;;;23.22;78.48;96955.78;594325;238;68582;-68
2022/06/01 12:08:53;;;;;;;;;;;;;;;23.21;78.43;96954.16;594753;238;63030;-68
2022/06/01 12:11:46;;;;;;;;;;;;;;;23.21;78.43;96959.53;594669;238;68687;-70
2022/06/01 12:14:27;;;;;;;;;;;;;;;23.22;78.37;96958.46;594449;238;68344;-69
2022/06/01 12:17:12;;;;;;;;;;;;;;;23.21;78.44;96950.69;594755;238;65354;-70
2022/06/01 12:19:45;;;;;;;;;;;;;;;23.22;78.57;96947.73;594859;238;68827;-67
2022/06/01 12:28:30;;;;;;;;;;;;;;;23.21;78.54;96951.48;594685;238;68030;-69
2022/06/01 12:30:25;;;;;;;;;;;;;;;23.21;78.74;96951.48;594792;238;66555;-71
2022/06/01 12:33:00;;;;;;;;;;;;;;;23.21;78.76;96946.13;594397;238;63145;-70
2022/06/01 12:35:32;;;;;;;;;;;;;;;23.22;78.61;96946.95;593087;238;68401;-67
2022/06/01 12:38:01;;;;;;;;;;;;;;;23.22;78.76;96944.27;592224;238;66326;-69
2022/06/01 12:40:29;;;;;;;;;;;;;;;23.22;78.85;96944.27;592160;239;63032;-66
2022/06/01 12:42:58;;;;;;;;;;;;;;;23.21;78.63;96948.80;592117;239;68387;-67
2022/06/01 12:45:30;;;;;;;;;;;;;;;23.22;78.86;96955.78;592140;239;68725;-70
2022/06/01 12:48:02;;;;;;;;;;;;;;;23.29;74.89;96951.95;592206;239;65347;-69
2022/06/01 12:50:31;;;;;;;;;;;;;;;23.28;76.45;96956.52;591979;239;68196;-69
2022/06/01 12:53:09;;;;;;;;;;;;;;;23.25;77.98;96947.16;592162;239;68574;-69
2022/06/01 12:55:37;;;;;;;;;;;;;;;23.25;78.44;96949.84;592093;239;64338;-68
2022/06/01 12:58:06;;;;;;;;;;;;;;;23.24;78.41;96947.44;592150;239;66671;-68
2022/06/01 13:00:39;;;;;;;;;;;;;;;23.24;78.50;96948.26;592222;239;66493;-69
2022/06/01 13:03:14;;;;;;;;;;;;;;;23.24;78.46;96948.26;591804;239;62994;-69
2022/06/01 13:05:42;;;;;;;;;;;;;;;23.24;78.56;96948.26;592210;239;66441;-70
2022/06/01 13:08:11;;;;;;;;;;;;;;;23.24;78.56;96953.63;592275;239;68686;-68
2022/06/01 13:10:39;;;;;;;;;;;;;;;23.24;78.50;96947.44;592128;239;65228;-68
2022/06/01 13:13:14;;;;;;;;;;;;;;;23.25;78.61;96943.69;592260;239;69669;-68
2022/06/01 13:15:44;;;;;;;;;;;;;;;23.24;78.62;96942.89;592305;239;68591;-68
2022/06/01 13:18:16;;;;;;;;;;;;;;;23.24;78.65;96942.89;591494;239;65702;-68
2022/06/01 13:20:44;;;;;;;;;;;;;;;23.24;78.68;96944.75;592096;239;66464;-68
2022/06/01 13:23:20;;;;;;;;;;;;;;;23.24;78.66;96940.22;592148;239;69049;-68
2022/06/01 13:25:49;;;;;;;;;;;;;;;23.24;78.82;96942.89;592068;239;65938;-69
2022/06/01 13:28:17;;;;;;;;;;;;;;;23.25;78.66;96943.69;592231;239;68689;-70
2022/06/01 13:30:45;;;;;;;;;;;;;;;23.24;78.74;96932.17;592185;239;66468;-67
2022/06/01 13:33:20;;;;;;;;;;;;;;;23.25;78.85;96932.96;592110;239;63294;-64
2022/06/01 13:35:49;;;;;;;;;;;;;;;23.24;78.90;96929.48;594060;238;68768;-66
2022/06/01 13:38:17;;;;;;;;;;;;;;;23.26;79.10;96935.34;594749;238;68307;-67
2022/06/01 13:40:56;;;;;;;;;;;;;;;23.26;78.98;96931.87;594709;238;66618;-68